sensor_id;sensor_type;location;lat;lon;timestamp;P1;durP1;ratioP1;P2;durP2;ratioP2
42084;SDS011;27746;52.228;20.890;2022-07-15T00:01:27;4.60;;;1.90;;
42084;SDS011;27746;52.228;20.890;2022-07-15T00:03:55;5.25;;;2.08;;
42084;SDS011;27746;52.228;20.890;2022-07-15T00:06:23;7.97;;;1.70;;
42084;SDS011;27746;52.228;20.890;2022-07-15T00:08:49;7.18;;;1.42;;
42084;SDS011;27746;52.228;20.890;2022-07-15T00:11:16;3.10;;;1.30;;
42084;SDS011;27746;52.228;20.890;2022-07-15T00:13:43;5.93;;;1.48;;
42084;SDS011;27746;52.228;20.890;2022-07-15T00:16:10;3.72;;;1.73;;
42084;SDS011;27746;52.228;20.890;2022-07-15T00:18:40;5.15;;;1.98;;
42084;SDS011;27746;52.228;20.890;2022-07-15T00:21:07;5.35;;;1.98;;
42084;SDS011;27746;52.228;20.890;2022-07-15T00:23:35;5.32;;;1.73;;
42084;SDS011;27746;52.228;20.890;2022-07-15T00:26:02;7.78;;;1.50;;
42084;SDS011;27746;52.228;20.890;2022-07-15T00:28:29;4.72;;;1.40;;
42084;SDS011;27746;52.228;20.890;2022-07-15T00:30:55;3.60;;;1.50;;
42084;SDS011;27746;52.228;20.890;2022-07-15T00:33:22;6.20;;;1.52;;
42084;SDS011;27746;52.228;20.890;2022-07-15T00:35:49;5.20;;;1.55;;
42084;SDS011;27746;52.228;20.890;2022-07-15T00:38:16;5.90;;;1.60;;
42084;SDS011;27746;52.228;20.890;2022-07-15T00:40:44;6.82;;;1.42;;
42084;SDS011;27746;52.228;20.890;2022-07-15T00:43:13;4.82;;;1.33;;
42084;SDS011;27746;52.228;20.890;2022-07-15T00:45:41;7.57;;;1.92;;
42084;SDS011;27746;52.228;20.890;2022-07-15T00:48:09;4.20;;;1.63;;
42084;SDS011;27746;52.228;20.890;2022-07-15T00:50:36;2.90;;;1.30;;
42084;SDS011;27746;52.228;20.890;2022-07-15T00:53:04;5.60;;;1.90;;
42084;SDS011;27746;52.228;20.890;2022-07-15T00:55:34;5.07;;;1.48;;
42084;SDS011;27746;52.228;20.890;2022-07-15T00:58:04;4.70;;;1.50;;
42084;SDS011;27746;52.228;20.890;2022-07-15T01:00:34;6.97;;;1.80;;
42084;SDS011;27746;52.228;20.890;2022-07-15T01:03:01;8.05;;;1.63;;
42084;SDS011;27746;52.228;20.890;2022-07-15T01:05:28;4.50;;;1.33;;
42084;SDS011;27746;52.228;20.890;2022-07-15T01:07:55;4.03;;;1.50;;
42084;SDS011;27746;52.228;20.890;2022-07-15T01:10:22;5.65;;;1.35;;
42084;SDS011;27746;52.228;20.890;2022-07-15T01:12:50;5.40;;;1.70;;
42084;SDS011;27746;52.228;20.890;2022-07-15T01:15:19;2.85;;;1.25;;
42084;SDS011;27746;52.228;20.890;2022-07-15T01:17:46;5.13;;;2.28;;
42084;SDS011;27746;52.228;20.890;2022-07-15T01:20:13;4.68;;;1.50;;
42084;SDS011;27746;52.228;20.890;2022-07-15T01:22:42;5.55;;;1.77;;
42084;SDS011;27746;52.228;20.890;2022-07-15T01:25:09;6.55;;;1.65;;
42084;SDS011;27746;52.228;20.890;2022-07-15T01:27:36;4.30;;;1.55;;
42084;SDS011;27746;52.228;20.890;2022-07-15T01:30:03;8.52;;;3.95;;
42084;SDS011;27746;52.228;20.890;2022-07-15T01:32:31;4.32;;;2.70;;
42084;SDS011;27746;52.228;20.890;2022-07-15T01:34:57;5.32;;;2.05;;
42084;SDS011;27746;52.228;20.890;2022-07-15T01:37:24;4.05;;;1.75;;
42084;SDS011;27746;52.228;20.890;2022-07-15T01:39:53;6.15;;;1.70;;
42084;SDS011;27746;52.228;20.890;2022-07-15T01:42:20;4.53;;;1.58;;
42084;SDS011;27746;52.228;20.890;2022-07-15T01:44:46;4.25;;;1.60;;
42084;SDS011;27746;52.228;20.890;2022-07-15T01:47:13;5.40;;;1.90;;
42084;SDS011;27746;52.228;20.890;2022-07-15T01:49:40;5.00;;;1.80;;
42084;SDS011;27746;52.228;20.890;2022-07-15T01:52:07;6.80;;;1.92;;
42084;SDS011;27746;52.228;20.890;2022-07-15T01:54:35;5.43;;;1.95;;
42084;SDS011;27746;52.228;20.890;2022-07-15T01:57:03;3.92;;;1.38;;
42084;SDS011;27746;52.228;20.890;2022-07-15T01:59:30;8.63;;;2.22;;
42084;SDS011;27746;52.228;20.890;2022-07-15T02:01:57;7.30;;;1.85;;
42084;SDS011;27746;52.228;20.890;2022-07-15T02:04:24;4.30;;;1.40;;
42084;SDS011;27746;52.228;20.890;2022-07-15T02:06:52;4.18;;;1.70;;
42084;SDS011;27746;52.228;20.890;2022-07-15T02:09:19;6.50;;;1.77;;
42084;SDS011;27746;52.228;20.890;2022-07-15T02:11:46;7.15;;;1.80;;
42084;SDS011;27746;52.228;20.890;2022-07-15T02:14:14;6.15;;;2.17;;
42084;SDS011;27746;52.228;20.890;2022-07-15T02:16:41;6.30;;;1.75;;
42084;SDS011;27746;52.228;20.890;2022-07-15T02:19:07;6.07;;;1.85;;
42084;SDS011;27746;52.228;20.890;2022-07-15T02:21:34;4.07;;;1.42;;
42084;SDS011;27746;52.228;20.890;2022-07-15T02:24:02;4.60;;;1.50;;
42084;SDS011;27746;52.228;20.890;2022-07-15T02:26:29;5.20;;;1.75;;
42084;SDS011;27746;52.228;20.890;2022-07-15T02:28:56;5.82;;;1.45;;
42084;SDS011;27746;52.228;20.890;2022-07-15T02:31:25;5.30;;;1.60;;
42084;SDS011;27746;52.228;20.890;2022-07-15T02:33:52;5.47;;;1.60;;
42084;SDS011;27746;52.228;20.890;2022-07-15T02:36:19;5.97;;;2.05;;
42084;SDS011;27746;52.228;20.890;2022-07-15T02:38:46;4.82;;;2.25;;
42084;SDS011;27746;52.228;20.890;2022-07-15T02:41:13;3.97;;;1.67;;
42084;SDS011;27746;52.228;20.890;2022-07-15T02:43:40;6.03;;;1.65;;
42084;SDS011;27746;52.228;20.890;2022-07-15T02:46:07;6.13;;;2.30;;
42084;SDS011;27746;52.228;20.890;2022-07-15T02:48:36;4.00;;;1.63;;
42084;SDS011;27746;52.228;20.890;2022-07-15T02:51:03;6.63;;;2.00;;
42084;SDS011;27746;52.228;20.890;2022-07-15T02:53:31;4.32;;;1.67;;
42084;SDS011;27746;52.228;20.890;2022-07-15T02:55:57;5.03;;;1.58;;
42084;SDS011;27746;52.228;20.890;2022-07-15T02:58:25;6.35;;;2.17;;
42084;SDS011;27746;52.228;20.890;2022-07-15T03:00:52;4.28;;;1.67;;
42084;SDS011;27746;52.228;20.890;2022-07-15T03:03:19;5.53;;;1.60;;
42084;SDS011;27746;52.228;20.890;2022-07-15T03:05:49;4.72;;;1.70;;
42084;SDS011;27746;52.228;20.890;2022-07-15T03:08:16;4.55;;;1.60;;
42084;SDS011;27746;52.228;20.890;2022-07-15T03:10:43;4.78;;;2.13;;
42084;SDS011;27746;52.228;20.890;2022-07-15T03:13:10;6.03;;;1.83;;
42084;SDS011;27746;52.228;20.890;2022-07-15T03:15:37;4.38;;;1.65;;
42084;SDS011;27746;52.228;20.890;2022-07-15T03:18:04;7.57;;;2.08;;
42084;SDS011;27746;52.228;20.890;2022-07-15T03:20:30;5.30;;;1.90;;
42084;SDS011;27746;52.228;20.890;2022-07-15T03:22:59;8.95;;;2.50;;
42084;SDS011;27746;52.228;20.890;2022-07-15T03:25:25;5.50;;;2.22;;
42084;SDS011;27746;52.228;20.890;2022-07-15T03:27:52;8.52;;;1.88;;
42084;SDS011;27746;52.228;20.890;2022-07-15T03:30:21;4.07;;;1.88;;
42084;SDS011;27746;52.228;20.890;2022-07-15T03:32:48;7.00;;;2.50;;
42084;SDS011;27746;52.228;20.890;2022-07-15T03:35:15;5.15;;;2.90;;
42084;SDS011;27746;52.228;20.890;2022-07-15T03:37:42;7.10;;;2.15;;
42084;SDS011;27746;52.228;20.890;2022-07-15T03:40:11;6.00;;;2.05;;
42084;SDS011;27746;52.228;20.890;2022-07-15T03:42:38;5.22;;;1.80;;
42084;SDS011;27746;52.228;20.890;2022-07-15T03:45:05;5.30;;;1.73;;
42084;SDS011;27746;52.228;20.890;2022-07-15T03:47:33;4.80;;;2.05;;
42084;SDS011;27746;52.228;20.890;2022-07-15T03:50:00;6.18;;;2.15;;
42084;SDS011;27746;52.228;20.890;2022-07-15T03:52:26;4.28;;;1.60;;
42084;SDS011;27746;52.228;20.890;2022-07-15T03:54:53;6.50;;;2.05;;
42084;SDS011;27746;52.228;20.890;2022-07-15T03:57:21;6.50;;;2.20;;
42084;SDS011;27746;52.228;20.890;2022-07-15T03:59:49;5.82;;;1.90;;
42084;SDS011;27746;52.228;20.890;2022-07-15T04:02:17;3.13;;;1.60;;
42084;SDS011;27746;52.228;20.890;2022-07-15T04:04:43;7.72;;;2.38;;
42084;SDS011;27746;52.228;20.890;2022-07-15T04:07:10;6.00;;;1.70;;
42084;SDS011;27746;52.228;20.890;2022-07-15T04:09:37;4.57;;;2.10;;
42084;SDS011;27746;52.228;20.890;2022-07-15T04:12:04;4.20;;;1.85;;
42084;SDS011;27746;52.228;20.890;2022-07-15T04:14:32;5.38;;;1.70;;
42084;SDS011;27746;52.228;20.890;2022-07-15T04:16:59;6.75;;;1.77;;
42084;SDS011;27746;52.228;20.890;2022-07-15T04:19:26;4.82;;;1.52;;
42084;SDS011;27746;52.228;20.890;2022-07-15T04:21:52;4.40;;;1.60;;
42084;SDS011;27746;52.228;20.890;2022-07-15T04:24:19;5.47;;;1.50;;
42084;SDS011;27746;52.228;20.890;2022-07-15T04:26:46;6.85;;;2.15;;
42084;SDS011;27746;52.228;20.890;2022-07-15T04:29:13;6.20;;;1.90;;
42084;SDS011;27746;52.228;20.890;2022-07-15T04:31:41;4.68;;;1.65;;
42084;SDS011;27746;52.228;20.890;2022-07-15T04:34:08;7.43;;;3.63;;
42084;SDS011;27746;52.228;20.890;2022-07-15T04:36:35;8.73;;;2.78;;
42084;SDS011;27746;52.228;20.890;2022-07-15T04:49:14;6.28;;;1.92;;
42084;SDS011;27746;52.228;20.890;2022-07-15T04:51:58;6.32;;;1.45;;
42084;SDS011;27746;52.228;20.890;2022-07-15T04:54:25;6.07;;;1.63;;
42084;SDS011;27746;52.228;20.890;2022-07-15T04:56:52;5.68;;;1.50;;
42084;SDS011;27746;52.228;20.890;2022-07-15T04:59:18;4.53;;;1.40;;
42084;SDS011;27746;52.228;20.890;2022-07-15T05:01:45;4.30;;;1.55;;
42084;SDS011;27746;52.228;20.890;2022-07-15T05:04:17;4.53;;;1.80;;
42084;SDS011;27746;52.228;20.890;2022-07-15T05:06:44;3.83;;;1.67;;
42084;SDS011;27746;52.228;20.890;2022-07-15T05:09:11;4.50;;;1.80;;
42084;SDS011;27746;52.228;20.890;2022-07-15T05:11:38;7.50;;;1.50;;
42084;SDS011;27746;52.228;20.890;2022-07-15T05:14:05;5.82;;;2.25;;
42084;SDS011;27746;52.228;20.890;2022-07-15T05:16:31;7.72;;;2.15;;
42084;SDS011;27746;52.228;20.890;2022-07-15T05:18:58;5.30;;;2.05;;
42084;SDS011;27746;52.228;20.890;2022-07-15T05:21:26;7.53;;;1.67;;
42084;SDS011;27746;52.228;20.890;2022-07-15T05:23:53;4.93;;;1.75;;
42084;SDS011;27746;52.228;20.890;2022-07-15T05:26:20;5.75;;;1.60;;
42084;SDS011;27746;52.228;20.890;2022-07-15T05:28:47;4.75;;;1.88;;
42084;SDS011;27746;52.228;20.890;2022-07-15T05:31:14;4.65;;;1.85;;
42084;SDS011;27746;52.228;20.890;2022-07-15T05:33:41;6.25;;;1.98;;
42084;SDS011;27746;52.228;20.890;2022-07-15T05:36:10;4.07;;;1.50;;
42084;SDS011;27746;52.228;20.890;2022-07-15T05:38:39;4.47;;;1.60;;
42084;SDS011;27746;52.228;20.890;2022-07-15T05:41:06;3.35;;;1.70;;
42084;SDS011;27746;52.228;20.890;2022-07-15T05:43:33;3.75;;;1.48;;
42084;SDS011;27746;52.228;20.890;2022-07-15T05:46:00;4.10;;;1.77;;
42084;SDS011;27746;52.228;20.890;2022-07-15T05:48:27;4.05;;;1.23;;
42084;SDS011;27746;52.228;20.890;2022-07-15T05:50:55;4.70;;;1.23;;
42084;SDS011;27746;52.228;20.890;2022-07-15T05:53:21;5.40;;;1.60;;
42084;SDS011;27746;52.228;20.890;2022-07-15T05:55:49;3.55;;;1.02;;
42084;SDS011;27746;52.228;20.890;2022-07-15T05:58:17;4.38;;;1.25;;
42084;SDS011;27746;52.228;20.890;2022-07-15T06:00:44;3.00;;;1.20;;
42084;SDS011;27746;52.228;20.890;2022-07-15T06:03:11;4.72;;;1.10;;
42084;SDS011;27746;52.228;20.890;2022-07-15T06:05:38;5.03;;;1.20;;
42084;SDS011;27746;52.228;20.890;2022-07-15T06:08:04;2.90;;;1.02;;
42084;SDS011;27746;52.228;20.890;2022-07-15T06:10:32;4.97;;;0.93;;
42084;SDS011;27746;52.228;20.890;2022-07-15T06:13:00;6.32;;;1.13;;
42084;SDS011;27746;52.228;20.890;2022-07-15T06:15:27;7.32;;;1.45;;
42084;SDS011;27746;52.228;20.890;2022-07-15T06:17:53;7.07;;;1.38;;
42084;SDS011;27746;52.228;20.890;2022-07-15T06:20:21;3.25;;;1.42;;
42084;SDS011;27746;52.228;20.890;2022-07-15T06:22:48;6.55;;;1.75;;
42084;SDS011;27746;52.228;20.890;2022-07-15T06:25:15;4.55;;;1.20;;
42084;SDS011;27746;52.228;20.890;2022-07-15T06:27:42;5.38;;;1.40;;
42084;SDS011;27746;52.228;20.890;2022-07-15T06:30:10;4.78;;;1.33;;
42084;SDS011;27746;52.228;20.890;2022-07-15T06:32:37;9.70;;;1.80;;
42084;SDS011;27746;52.228;20.890;2022-07-15T06:35:06;4.07;;;1.25;;
42084;SDS011;27746;52.228;20.890;2022-07-15T06:37:33;5.75;;;1.55;;
42084;SDS011;27746;52.228;20.890;2022-07-15T06:40:00;4.35;;;1.77;;
42084;SDS011;27746;52.228;20.890;2022-07-15T06:42:28;3.53;;;1.38;;
42084;SDS011;27746;52.228;20.890;2022-07-15T06:44:54;4.88;;;1.65;;
42084;SDS011;27746;52.228;20.890;2022-07-15T06:47:23;4.70;;;1.35;;
42084;SDS011;27746;52.228;20.890;2022-07-15T06:49:49;4.18;;;1.15;;
42084;SDS011;27746;52.228;20.890;2022-07-15T06:52:16;5.95;;;1.38;;
42084;SDS011;27746;52.228;20.890;2022-07-15T06:54:43;3.67;;;1.30;;
42084;SDS011;27746;52.228;20.890;2022-07-15T06:57:10;4.35;;;1.40;;
42084;SDS011;27746;52.228;20.890;2022-07-15T06:59:37;4.68;;;1.67;;
42084;SDS011;27746;52.228;20.890;2022-07-15T07:02:04;6.30;;;1.58;;
42084;SDS011;27746;52.228;20.890;2022-07-15T07:04:33;5.03;;;1.15;;
42084;SDS011;27746;52.228;20.890;2022-07-15T07:06:59;4.03;;;1.52;;
42084;SDS011;27746;52.228;20.890;2022-07-15T07:09:26;6.07;;;1.58;;
42084;SDS011;27746;52.228;20.890;2022-07-15T07:11:53;4.90;;;1.50;;
42084;SDS011;27746;52.228;20.890;2022-07-15T07:14:20;3.70;;;1.70;;
42084;SDS011;27746;52.228;20.890;2022-07-15T07:16:47;5.93;;;1.77;;
42084;SDS011;27746;52.228;20.890;2022-07-15T07:19:13;4.50;;;2.05;;
42084;SDS011;27746;52.228;20.890;2022-07-15T07:21:41;4.72;;;1.42;;
42084;SDS011;27746;52.228;20.890;2022-07-15T07:24:08;3.78;;;1.38;;
42084;SDS011;27746;52.228;20.890;2022-07-15T07:26:35;3.85;;;1.20;;
42084;SDS011;27746;52.228;20.890;2022-07-15T07:29:02;4.50;;;1.40;;
42084;SDS011;27746;52.228;20.890;2022-07-15T07:31:30;4.03;;;1.50;;
42084;SDS011;27746;52.228;20.890;2022-07-15T07:33:57;3.88;;;1.35;;
42084;SDS011;27746;52.228;20.890;2022-07-15T07:36:24;5.43;;;1.50;;
42084;SDS011;27746;52.228;20.890;2022-07-15T07:38:53;2.75;;;1.20;;
42084;SDS011;27746;52.228;20.890;2022-07-15T07:41:20;4.43;;;1.63;;
42084;SDS011;27746;52.228;20.890;2022-07-15T07:43:47;6.63;;;1.67;;
42084;SDS011;27746;52.228;20.890;2022-07-15T07:46:14;5.53;;;2.13;;
42084;SDS011;27746;52.228;20.890;2022-07-15T07:48:42;9.45;;;1.50;;
42084;SDS011;27746;52.228;20.890;2022-07-15T07:51:08;4.05;;;1.48;;
42084;SDS011;27746;52.228;20.890;2022-07-15T07:53:35;5.93;;;1.30;;
42084;SDS011;27746;52.228;20.890;2022-07-15T07:56:04;5.88;;;1.33;;
42084;SDS011;27746;52.228;20.890;2022-07-15T07:58:31;4.20;;;1.65;;
42084;SDS011;27746;52.228;20.890;2022-07-15T08:00:59;3.50;;;1.17;;
42084;SDS011;27746;52.228;20.890;2022-07-15T08:03:26;3.85;;;1.17;;
42084;SDS011;27746;52.228;20.890;2022-07-15T08:05:53;2.67;;;1.25;;
42084;SDS011;27746;52.228;20.890;2022-07-15T08:08:20;3.20;;;1.15;;
42084;SDS011;27746;52.228;20.890;2022-07-15T08:10:48;3.88;;;1.55;;
42084;SDS011;27746;52.228;20.890;2022-07-15T08:13:18;4.13;;;1.27;;
42084;SDS011;27746;52.228;20.890;2022-07-15T08:15:46;5.15;;;1.20;;
42084;SDS011;27746;52.228;20.890;2022-07-15T08:18:13;3.28;;;1.23;;
42084;SDS011;27746;52.228;20.890;2022-07-15T08:20:40;3.13;;;1.48;;
42084;SDS011;27746;52.228;20.890;2022-07-15T08:23:08;5.15;;;1.15;;
42084;SDS011;27746;52.228;20.890;2022-07-15T08:25:36;6.18;;;1.20;;
42084;SDS011;27746;52.228;20.890;2022-07-15T08:28:04;2.72;;;1.00;;
42084;SDS011;27746;52.228;20.890;2022-07-15T08:30:33;4.18;;;1.27;;
42084;SDS011;27746;52.228;20.890;2022-07-15T08:33:00;2.72;;;0.90;;
42084;SDS011;27746;52.228;20.890;2022-07-15T08:35:28;5.75;;;1.13;;
42084;SDS011;27746;52.228;20.890;2022-07-15T08:37:55;1.85;;;0.90;;
42084;SDS011;27746;52.228;20.890;2022-07-15T08:40:21;4.50;;;0.95;;
42084;SDS011;27746;52.228;20.890;2022-07-15T08:42:49;2.55;;;0.90;;
42084;SDS011;27746;52.228;20.890;2022-07-15T08:45:16;3.85;;;1.00;;
42084;SDS011;27746;52.228;20.890;2022-07-15T08:47:45;3.38;;;0.60;;
42084;SDS011;27746;52.228;20.890;2022-07-15T08:50:15;3.58;;;1.35;;
42084;SDS011;27746;52.228;20.890;2022-07-15T08:52:43;3.67;;;0.70;;
42084;SDS011;27746;52.228;20.890;2022-07-15T08:55:12;5.05;;;0.98;;
42084;SDS011;27746;52.228;20.890;2022-07-15T08:57:40;3.55;;;1.27;;
42084;SDS011;27746;52.228;20.890;2022-07-15T09:00:11;4.22;;;1.05;;
42084;SDS011;27746;52.228;20.890;2022-07-15T09:02:38;2.72;;;0.93;;
42084;SDS011;27746;52.228;20.890;2022-07-15T09:05:16;1.80;;;0.80;;
42084;SDS011;27746;52.228;20.890;2022-07-15T09:07:54;5.55;;;0.90;;
42084;SDS011;27746;52.228;20.890;2022-07-15T09:10:24;3.58;;;0.80;;
42084;SDS011;27746;52.228;20.890;2022-07-15T09:13:06;4.05;;;0.88;;
42084;SDS011;27746;52.228;20.890;2022-07-15T09:15:34;3.33;;;0.80;;
42084;SDS011;27746;52.228;20.890;2022-07-15T09:18:10;3.13;;;1.10;;
42084;SDS011;27746;52.228;20.890;2022-07-15T09:20:39;3.40;;;0.95;;
42084;SDS011;27746;52.228;20.890;2022-07-15T09:23:07;2.70;;;1.05;;
42084;SDS011;27746;52.228;20.890;2022-07-15T09:25:36;8.07;;;1.50;;
42084;SDS011;27746;52.228;20.890;2022-07-15T09:28:05;5.20;;;1.23;;
42084;SDS011;27746;52.228;20.890;2022-07-15T09:30:33;2.40;;;1.00;;
42084;SDS011;27746;52.228;20.890;2022-07-15T09:33:20;9.90;;;1.27;;
42084;SDS011;27746;52.228;20.890;2022-07-15T09:36:07;4.72;;;1.08;;
42084;SDS011;27746;52.228;20.890;2022-07-15T09:38:37;3.67;;;0.90;;
42084;SDS011;27746;52.228;20.890;2022-07-15T09:41:09;9.57;;;2.35;;
42084;SDS011;27746;52.228;20.890;2022-07-15T09:43:45;9.63;;;1.60;;
42084;SDS011;27746;52.228;20.890;2022-07-15T09:46:14;5.50;;;1.13;;
42084;SDS011;27746;52.228;20.890;2022-07-15T09:48:42;4.13;;;1.30;;
42084;SDS011;27746;52.228;20.890;2022-07-15T09:51:11;3.50;;;1.00;;
42084;SDS011;27746;52.228;20.890;2022-07-15T09:53:39;3.95;;;1.05;;
42084;SDS011;27746;52.228;20.890;2022-07-15T09:56:07;5.40;;;1.13;;
42084;SDS011;27746;52.228;20.890;2022-07-15T09:58:36;5.13;;;1.40;;
42084;SDS011;27746;52.228;20.890;2022-07-15T10:01:05;4.10;;;1.02;;
42084;SDS011;27746;52.228;20.890;2022-07-15T10:03:32;6.57;;;1.42;;
42084;SDS011;27746;52.228;20.890;2022-07-15T10:05:59;4.35;;;1.23;;
42084;SDS011;27746;52.228;20.890;2022-07-15T10:08:29;2.67;;;0.80;;
42084;SDS011;27746;52.228;20.890;2022-07-15T10:10:56;5.82;;;1.33;;
42084;SDS011;27746;52.228;20.890;2022-07-15T10:16:17;8.07;;;1.45;;
42084;SDS011;27746;52.228;20.890;2022-07-15T10:19:02;6.78;;;1.00;;
42084;SDS011;27746;52.228;20.890;2022-07-15T10:21:35;3.40;;;0.82;;
42084;SDS011;27746;52.228;20.890;2022-07-15T10:24:14;2.97;;;0.93;;
42084;SDS011;27746;52.228;20.890;2022-07-15T10:26:55;5.20;;;1.00;;
42084;SDS011;27746;52.228;20.890;2022-07-15T10:29:36;4.88;;;0.98;;
42084;SDS011;27746;52.228;20.890;2022-07-15T10:32:04;3.65;;;1.15;;
42084;SDS011;27746;52.228;20.890;2022-07-15T10:34:31;5.75;;;1.35;;
42084;SDS011;27746;52.228;20.890;2022-07-15T10:37:00;8.63;;;1.30;;
42084;SDS011;27746;52.228;20.890;2022-07-15T10:39:49;7.47;;;1.65;;
42084;SDS011;27746;52.228;20.890;2022-07-15T10:42:22;2.85;;;0.88;;
42084;SDS011;27746;52.228;20.890;2022-07-15T10:45:02;4.07;;;1.15;;
42084;SDS011;27746;52.228;20.890;2022-07-15T10:47:31;4.00;;;1.17;;
42084;SDS011;27746;52.228;20.890;2022-07-15T10:49:59;6.68;;;1.33;;
42084;SDS011;27746;52.228;20.890;2022-07-15T10:52:26;4.70;;;1.10;;
42084;SDS011;27746;52.228;20.890;2022-07-15T10:55:02;5.20;;;1.40;;
42084;SDS011;27746;52.228;20.890;2022-07-15T11:00:31;5.05;;;1.15;;
42084;SDS011;27746;52.228;20.890;2022-07-15T11:03:02;4.25;;;1.10;;
42084;SDS011;27746;52.228;20.890;2022-07-15T11:05:30;11.30;;;1.42;;
42084;SDS011;27746;52.228;20.890;2022-07-15T11:07:58;8.75;;;1.13;;
42084;SDS011;27746;52.228;20.890;2022-07-15T11:10:26;5.07;;;1.38;;
42084;SDS011;27746;52.228;20.890;2022-07-15T11:12:57;3.10;;;1.08;;
42084;SDS011;27746;52.228;20.890;2022-07-15T11:15:25;6.47;;;1.45;;
42084;SDS011;27746;52.228;20.890;2022-07-15T11:17:53;12.52;;;2.30;;
42084;SDS011;27746;52.228;20.890;2022-07-15T11:20:22;8.15;;;1.40;;
42084;SDS011;27746;52.228;20.890;2022-07-15T11:22:53;6.40;;;1.30;;
42084;SDS011;27746;52.228;20.890;2022-07-15T11:25:22;6.53;;;1.50;;
42084;SDS011;27746;52.228;20.890;2022-07-15T11:28:01;4.80;;;1.20;;
42084;SDS011;27746;52.228;20.890;2022-07-15T11:30:34;6.18;;;1.00;;
42084;SDS011;27746;52.228;20.890;2022-07-15T11:33:04;5.97;;;1.45;;
42084;SDS011;27746;52.228;20.890;2022-07-15T11:35:41;2.47;;;0.90;;
42084;SDS011;27746;52.228;20.890;2022-07-15T11:38:10;5.03;;;0.90;;
42084;SDS011;27746;52.228;20.890;2022-07-15T11:40:38;5.15;;;1.10;;
42084;SDS011;27746;52.228;20.890;2022-07-15T11:43:28;2.92;;;1.00;;
42084;SDS011;27746;52.228;20.890;2022-07-15T11:46:14;3.88;;;1.35;;
42084;SDS011;27746;52.228;20.890;2022-07-15T11:48:42;2.90;;;1.00;;
42084;SDS011;27746;52.228;20.890;2022-07-15T11:51:09;4.43;;;1.00;;
42084;SDS011;27746;52.228;20.890;2022-07-15T11:53:38;4.43;;;1.02;;
42084;SDS011;27746;52.228;20.890;2022-07-15T11:56:08;5.30;;;1.30;;
42084;SDS011;27746;52.228;20.890;2022-07-15T11:58:37;3.03;;;0.80;;
42084;SDS011;27746;52.228;20.890;2022-07-15T12:01:07;4.53;;;1.00;;
42084;SDS011;27746;52.228;20.890;2022-07-15T12:03:37;5.55;;;1.30;;
42084;SDS011;27746;52.228;20.890;2022-07-15T12:06:07;7.18;;;1.65;;
42084;SDS011;27746;52.228;20.890;2022-07-15T12:08:38;4.72;;;0.82;;
42084;SDS011;27746;52.228;20.890;2022-07-15T12:11:11;3.33;;;1.00;;
42084;SDS011;27746;52.228;20.890;2022-07-15T12:13:43;3.30;;;0.88;;
42084;SDS011;27746;52.228;20.890;2022-07-15T12:16:12;3.47;;;0.93;;
42084;SDS011;27746;52.228;20.890;2022-07-15T12:18:39;3.75;;;0.95;;
42084;SDS011;27746;52.228;20.890;2022-07-15T12:21:08;4.32;;;1.00;;
42084;SDS011;27746;52.228;20.890;2022-07-15T12:23:35;3.92;;;0.75;;
42084;SDS011;27746;52.228;20.890;2022-07-15T12:26:03;2.53;;;0.68;;
42084;SDS011;27746;52.228;20.890;2022-07-15T12:28:32;2.35;;;0.70;;
42084;SDS011;27746;52.228;20.890;2022-07-15T12:31:00;3.22;;;0.90;;
42084;SDS011;27746;52.228;20.890;2022-07-15T12:33:27;3.83;;;0.82;;
42084;SDS011;27746;52.228;20.890;2022-07-15T12:36:13;4.85;;;0.77;;
42084;SDS011;27746;52.228;20.890;2022-07-15T12:38:43;3.95;;;0.80;;
42084;SDS011;27746;52.228;20.890;2022-07-15T12:41:22;8.25;;;0.90;;
42084;SDS011;27746;52.228;20.890;2022-07-15T12:43:51;4.13;;;1.10;;
42084;SDS011;27746;52.228;20.890;2022-07-15T12:46:21;5.93;;;1.05;;
42084;SDS011;27746;52.228;20.890;2022-07-15T12:52:11;4.32;;;1.10;;
42084;SDS011;27746;52.228;20.890;2022-07-15T12:54:45;4.28;;;0.90;;
42084;SDS011;27746;52.228;20.890;2022-07-15T12:57:20;2.83;;;1.00;;
42084;SDS011;27746;52.228;20.890;2022-07-15T12:59:49;4.40;;;1.13;;
42084;SDS011;27746;52.228;20.890;2022-07-15T13:02:20;2.63;;;1.27;;
42084;SDS011;27746;52.228;20.890;2022-07-15T13:04:48;4.00;;;1.00;;
42084;SDS011;27746;52.228;20.890;2022-07-15T13:07:15;2.25;;;0.77;;
42084;SDS011;27746;52.228;20.890;2022-07-15T13:09:43;6.03;;;1.08;;
42084;SDS011;27746;52.228;20.890;2022-07-15T13:12:10;4.30;;;1.15;;
42084;SDS011;27746;52.228;20.890;2022-07-15T13:14:38;5.43;;;1.20;;
42084;SDS011;27746;52.228;20.890;2022-07-15T13:17:06;3.90;;;1.10;;
42084;SDS011;27746;52.228;20.890;2022-07-15T13:19:35;4.97;;;0.90;;
42084;SDS011;27746;52.228;20.890;2022-07-15T13:22:01;8.98;;;2.00;;
42084;SDS011;27746;52.228;20.890;2022-07-15T13:24:29;5.47;;;1.92;;
42084;SDS011;27746;52.228;20.890;2022-07-15T13:26:56;5.22;;;0.80;;
42084;SDS011;27746;52.228;20.890;2022-07-15T13:29:22;4.55;;;1.25;;
42084;SDS011;27746;52.228;20.890;2022-07-15T13:31:49;3.25;;;0.82;;
42084;SDS011;27746;52.228;20.890;2022-07-15T13:34:16;3.10;;;0.88;;
42084;SDS011;27746;52.228;20.890;2022-07-15T13:36:44;7.45;;;1.20;;
42084;SDS011;27746;52.228;20.890;2022-07-15T13:39:11;4.60;;;0.80;;
42084;SDS011;27746;52.228;20.890;2022-07-15T13:41:37;4.18;;;1.10;;
42084;SDS011;27746;52.228;20.890;2022-07-15T13:44:04;8.27;;;1.35;;
42084;SDS011;27746;52.228;20.890;2022-07-15T13:46:31;4.22;;;1.33;;
42084;SDS011;27746;52.228;20.890;2022-07-15T13:48:58;5.38;;;1.30;;
42084;SDS011;27746;52.228;20.890;2022-07-15T13:51:25;6.28;;;1.35;;
42084;SDS011;27746;52.228;20.890;2022-07-15T13:53:53;4.65;;;1.30;;
42084;SDS011;27746;52.228;20.890;2022-07-15T13:56:21;6.00;;;1.10;;
42084;SDS011;27746;52.228;20.890;2022-07-15T13:58:48;5.18;;;1.52;;
42084;SDS011;27746;52.228;20.890;2022-07-15T14:01:16;4.93;;;0.80;;
42084;SDS011;27746;52.228;20.890;2022-07-15T14:03:42;2.75;;;0.93;;
42084;SDS011;27746;52.228;20.890;2022-07-15T14:06:09;4.70;;;1.00;;
42084;SDS011;27746;52.228;20.890;2022-07-15T14:08:36;4.43;;;0.82;;
42084;SDS011;27746;52.228;20.890;2022-07-15T14:11:04;4.03;;;0.80;;
42084;SDS011;27746;52.228;20.890;2022-07-15T14:13:31;4.78;;;0.90;;
42084;SDS011;27746;52.228;20.890;2022-07-15T14:15:58;3.45;;;0.93;;
42084;SDS011;27746;52.228;20.890;2022-07-15T14:18:24;7.53;;;1.17;;
42084;SDS011;27746;52.228;20.890;2022-07-15T14:21:05;3.92;;;0.80;;
42084;SDS011;27746;52.228;20.890;2022-07-15T14:23:32;2.95;;;1.00;;
42084;SDS011;27746;52.228;20.890;2022-07-15T14:25:59;6.47;;;1.35;;
42084;SDS011;27746;52.228;20.890;2022-07-15T14:28:27;4.00;;;0.80;;
42084;SDS011;27746;52.228;20.890;2022-07-15T14:30:54;4.10;;;0.90;;
42084;SDS011;27746;52.228;20.890;2022-07-15T14:33:21;3.65;;;0.75;;
42084;SDS011;27746;52.228;20.890;2022-07-15T14:35:48;3.90;;;0.82;;
42084;SDS011;27746;52.228;20.890;2022-07-15T14:38:15;3.25;;;0.75;;
42084;SDS011;27746;52.228;20.890;2022-07-15T14:40:42;3.70;;;0.82;;
42084;SDS011;27746;52.228;20.890;2022-07-15T14:43:09;7.72;;;2.03;;
42084;SDS011;27746;52.228;20.890;2022-07-15T14:45:37;4.28;;;1.15;;
42084;SDS011;27746;52.228;20.890;2022-07-15T14:48:04;3.72;;;1.00;;
42084;SDS011;27746;52.228;20.890;2022-07-15T14:50:31;5.35;;;1.17;;
42084;SDS011;27746;52.228;20.890;2022-07-15T14:52:58;3.70;;;0.90;;
42084;SDS011;27746;52.228;20.890;2022-07-15T14:55:25;3.00;;;1.00;;
42084;SDS011;27746;52.228;20.890;2022-07-15T14:57:52;6.18;;;1.05;;
42084;SDS011;27746;52.228;20.890;2022-07-15T15:00:19;2.55;;;1.00;;